Time;durP1;ratioP1;P1;durP2;ratioP2;P2;SDS_P1;SDS_P2;PMS_P1;PMS_P2;Temp;Humidity;BMP_temperature;BMP_pressure;BME280_temperature;BME280_humidity;BME280_pressure;Samples;Min_cycle;Max_cycle;Signal;HPM_P1;HPM_P2
2022/12/14 00:00:45;;;;;;;2.93;2.63;;;23.50;57.00;;;;;;5046746;28;20200;-53
2022/12/14 00:03:12;;;;;;;2.27;2.07;;;23.50;57.00;;;;;;5048524;28;20462;-43
2022/12/14 00:05:39;;;;;;;4.83;2.73;;;23.50;56.90;;;;;;5052008;28;20462;-48
2022/12/14 00:08:06;;;;;;;2.70;2.50;;;23.50;56.90;;;;;;5048932;28;20483;-44
2022/12/14 00:10:34;;;;;;;3.28;2.40;;;23.50;56.90;;;;;;5049394;28;20218;-44
2022/12/14 00:13:01;;;;;;;2.92;2.63;;;23.50;56.90;;;;;;5049603;28;20220;-50
2022/12/14 00:15:29;;;;;;;4.30;3.20;;;23.50;56.80;;;;;;5050320;28;20201;-52
2022/12/14 00:17:56;;;;;;;2.50;2.30;;;23.40;55.30;;;;;;5046116;28;20468;-54
2022/12/14 00:20:26;;;;;;;3.47;2.90;;;23.50;56.20;;;;;;5048372;28;20473;-48
2022/12/14 00:22:54;;;;;;;4.70;2.60;;;23.40;56.50;;;;;;5041454;28;20474;-43
2022/12/14 00:25:20;;;;;;;3.17;2.93;;;23.40;56.80;;;;;;5050692;28;20459;-44
2022/12/14 00:27:47;;;;;;;2.97;2.77;;;23.40;56.90;;;;;;5049014;28;20462;-48
2022/12/14 00:30:16;;;;;;;2.60;2.30;;;23.40;56.90;;;;;;5044980;28;20466;-43
2022/12/14 00:32:45;;;;;;;2.33;2.13;;;23.50;56.80;;;;;;5051492;28;20486;-46
2022/12/14 00:35:15;;;;;;;4.37;2.90;;;23.60;56.70;;;;;;5038425;28;20444;-55
2022/12/14 00:37:42;;;;;;;3.87;2.57;;;23.60;56.50;;;;;;5058726;28;20438;-56
2022/12/14 00:40:09;;;;;;;3.03;2.70;;;23.60;56.50;;;;;;5048855;28;20467;-45
2022/12/14 00:42:36;;;;;;;2.80;2.60;;;23.70;56.50;;;;;;5051694;28;20827;-43
2022/12/14 00:45:06;;;;;;;3.10;2.17;;;23.60;56.40;;;;;;5052033;28;21064;-48
2022/12/14 00:47:32;;;;;;;2.57;2.37;;;23.70;56.40;;;;;;5047377;28;20455;-43
2022/12/14 00:50:00;;;;;;;2.87;2.57;;;23.70;56.40;;;;;;5051468;28;20485;-49
2022/12/14 00:52:27;;;;;;;2.60;2.30;;;23.60;56.30;;;;;;5055438;28;20489;-49
2022/12/14 00:54:54;;;;;;;2.50;2.30;;;23.60;56.20;;;;;;5045848;28;20270;-44
2022/12/14 00:57:20;;;;;;;3.17;2.27;;;23.70;56.30;;;;;;5052351;28;20453;-43
2022/12/14 00:59:47;;;;;;;2.90;2.70;;;23.60;56.20;;;;;;5049127;28;20460;-50
2022/12/14 01:02:14;;;;;;;2.33;2.13;;;23.60;56.20;;;;;;5044722;28;20466;-44
2022/12/14 01:04:40;;;;;;;2.47;2.27;;;23.60;56.30;;;;;;5050872;28;20803;-43
2022/12/14 01:07:08;;;;;;;2.80;2.60;;;23.60;56.30;;;;;;5050883;28;20873;-51
2022/12/14 01:09:35;;;;;;;2.17;2.00;;;23.60;56.20;;;;;;5041471;28;20461;-43
2022/12/14 01:12:02;;;;;;;2.30;2.13;;;23.60;56.20;;;;;;5050815;28;20482;-45
2022/12/14 01:14:29;;;;;;;2.80;2.20;;;23.50;56.20;;;;;;5050784;28;20831;-43
2022/12/14 01:16:55;;;;;;;2.63;2.37;;;23.60;56.20;;;;;;5047397;28;20458;-52
2022/12/14 01:19:22;;;;;;;3.60;2.70;;;23.60;56.20;;;;;;5059221;28;20502;-50
2022/12/14 01:21:49;;;;;;;2.30;2.10;;;23.60;56.20;;;;;;5045706;28;20469;-43
2022/12/14 01:24:17;;;;;;;3.10;2.80;;;23.60;56.10;;;;;;5047487;28;20467;-44
2022/12/14 01:26:44;;;;;;;2.80;2.60;;;23.60;56.00;;;;;;5051090;28;20546;-56
2022/12/14 01:29:11;;;;;;;2.37;2.17;;;23.60;55.90;;;;;;5053207;28;20458;-44
2022/12/14 01:31:38;;;;;;;3.13;2.57;;;23.60;56.10;;;;;;5049412;28;20479;-46
2022/12/14 01:34:06;;;;;;;2.60;2.33;;;23.50;56.00;;;;;;5041744;28;20491;-46
2022/12/14 01:36:34;;;;;;;2.40;2.17;;;23.50;55.90;;;;;;5051550;28;20455;-43
2022/12/14 01:39:03;;;;;;;4.85;2.83;;;23.60;55.90;;;;;;5038426;28;20477;-44
2022/12/14 01:41:33;;;;;;;2.20;2.00;;;23.60;55.80;;;;;;5048365;28;20201;-53
2022/12/14 01:44:01;;;;;;;2.37;2.17;;;23.70;55.70;;;;;;5051219;28;20448;-43
2022/12/14 01:46:33;;;;;;;2.97;2.00;;;23.80;56.20;;;;;;5046776;28;20463;-52
2022/12/14 01:49:05;;;;;;;2.50;2.30;;;23.60;55.70;;;;;;5049962;28;20462;-44
2022/12/14 01:51:36;;;;;;;2.10;2.00;;;23.60;55.70;;;;;;5045461;28;20203;-44
2022/12/14 01:54:07;;;;;;;2.40;2.20;;;23.60;55.70;;;;;;5047905;28;20459;-45
2022/12/14 01:56:39;;;;;;;2.88;2.63;;;23.50;55.70;;;;;;5043245;28;20478;-44
2022/12/14 01:59:12;;;;;;;2.53;2.33;;;23.60;56.20;;;;;;5044158;28;20677;-43
2022/12/14 02:01:39;;;;;;;2.87;2.20;;;23.60;55.50;;;;;;5044209;28;20459;-43
2022/12/14 02:04:07;;;;;;;2.67;2.47;;;23.60;55.50;;;;;;5052053;28;20463;-43
2022/12/14 02:06:37;;;;;;;2.45;2.13;;;23.60;55.50;;;;;;5050327;28;20462;-44
2022/12/14 02:09:08;;;;;;;2.33;2.03;;;23.60;55.50;;;;;;5044214;28;20220;-43
2022/12/14 02:11:44;;;;;;;2.43;2.23;;;23.60;55.50;;;;;;5048791;28;20450;-45
2022/12/14 02:14:10;;;;;;;2.10;1.90;;;23.60;55.50;;;;;;5049888;28;20469;-43
2022/12/14 02:16:37;;;;;;;2.63;2.43;;;23.50;55.50;;;;;;5046607;28;20962;-44
2022/12/14 02:19:04;;;;;;;2.70;1.97;;;23.50;55.40;;;;;;5048918;28;21039;-43
2022/12/14 02:21:54;;;;;;;2.23;2.03;;;23.50;55.40;;;;;;5047412;28;20485;-51
2022/12/14 02:24:46;;;;;;;2.77;2.17;;;23.60;55.40;;;;;;5039963;28;20467;-44
2022/12/14 02:27:36;;;;;;;2.57;2.37;;;23.60;55.20;;;;;;5047754;28;20459;-45
2022/12/14 02:30:07;;;;;;;2.50;2.30;;;23.60;55.10;;;;;;5047966;28;20461;-50
2022/12/14 02:33:03;;;;;;;2.40;2.20;;;23.60;55.10;;;;;;5048417;28;20482;-44
2022/12/14 02:35:40;;;;;;;2.47;2.27;;;23.60;55.10;;;;;;5051205;28;20196;-47
2022/12/14 02:38:17;;;;;;;2.50;2.30;;;23.50;55.10;;;;;;5048384;28;20466;-53
2022/12/14 02:40:56;;;;;;;2.20;1.83;;;23.50;55.00;;;;;;5046743;28;20470;-45
2022/12/14 02:43:31;;;;;;;2.20;1.98;;;23.60;55.00;;;;;;5049899;28;20842;-53
2022/12/14 02:46:09;;;;;;;2.50;2.03;;;23.60;54.90;;;;;;5049129;28;20305;-48
2022/12/14 02:48:39;;;;;;;1.80;1.70;;;23.60;54.90;;;;;;5041075;28;20292;-44
2022/12/14 02:51:13;;;;;;;3.08;2.83;;;23.50;54.90;;;;;;5051611;28;20444;-50
2022/12/14 02:53:47;;;;;;;2.10;1.90;;;23.50;54.80;;;;;;5045512;28;20226;-54
2022/12/14 02:56:18;;;;;;;2.00;1.90;;;23.50;54.80;;;;;;5048725;28;20438;-50
2022/12/14 02:58:49;;;;;;;1.93;1.83;;;23.50;54.80;;;;;;5049428;28;20442;-43
2022/12/14 03:01:21;;;;;;;2.00;1.80;;;23.40;54.80;;;;;;5049772;28;20509;-45
2022/12/14 03:03:48;;;;;;;2.70;2.50;;;23.50;54.70;;;;;;5046014;28;20473;-44
2022/12/14 03:06:24;;;;;;;2.27;2.07;;;23.40;54.70;;;;;;5052402;28;20454;-43
2022/12/14 03:08:53;;;;;;;2.73;2.50;;;23.40;54.80;;;;;;5039490;28;20449;-44
2022/12/14 03:11:23;;;;;;;2.20;2.00;;;23.50;54.70;;;;;;5046066;28;20478;-51
2022/12/14 03:13:55;;;;;;;2.30;2.08;;;23.40;54.50;;;;;;5050339;28;20475;-49
2022/12/14 03:16:27;;;;;;;2.13;1.93;;;23.40;54.60;;;;;;5049622;28;20200;-45
2022/12/14 03:18:59;;;;;;;2.67;2.47;;;23.40;54.60;;;;;;5043481;28;20938;-42
2022/12/14 03:21:30;;;;;;;2.33;2.13;;;23.30;54.60;;;;;;5049426;28;21011;-52
2022/12/14 03:23:59;;;;;;;2.60;2.40;;;23.30;54.60;;;;;;5047753;28;20467;-43
2022/12/14 03:26:31;;;;;;;2.10;1.92;;;23.30;54.50;;;;;;5053683;28;20453;-46
2022/12/14 03:29:05;;;;;;;2.73;2.40;;;23.40;54.40;;;;;;5048147;28;20192;-44
2022/12/14 03:31:39;;;;;;;1.97;1.80;;;23.40;54.40;;;;;;5041904;28;20805;-48
2022/12/14 03:34:10;;;;;;;2.53;2.33;;;23.40;54.40;;;;;;5048050;28;20485;-43
2022/12/14 03:36:42;;;;;;;2.17;1.97;;;23.30;54.30;;;;;;5052416;28;20204;-45
2022/12/14 03:39:13;;;;;;;2.20;2.00;;;23.40;54.30;;;;;;5048056;28;21064;-45
2022/12/14 03:41:46;;;;;;;2.45;2.20;;;23.30;54.30;;;;;;5052773;28;20454;-44
2022/12/14 03:44:24;;;;;;;2.00;1.90;;;23.30;54.40;;;;;;5052968;28;20679;-43
2022/12/14 03:46:58;;;;;;;2.13;2.03;;;23.30;54.30;;;;;;5051543;28;20457;-44
2022/12/14 03:49:39;;;;;;;2.33;2.13;;;23.30;54.20;;;;;;5044692;28;20480;-47
2022/12/14 03:52:11;;;;;;;2.37;2.17;;;23.30;54.20;;;;;;5050857;28;20469;-44
2022/12/14 03:54:49;;;;;;;2.67;2.47;;;23.30;54.30;;;;;;5045328;28;20963;-44
2022/12/14 03:57:27;;;;;;;2.57;2.37;;;23.30;54.30;;;;;;5049332;28;20430;-43
2022/12/14 04:00:02;;;;;;;2.50;2.30;;;23.30;54.10;;;;;;5053939;28;20473;-43
2022/12/14 04:02:34;;;;;;;2.78;2.47;;;23.20;54.10;;;;;;5046623;28;20831;-45
2022/12/14 04:05:06;;;;;;;2.22;2.03;;;23.30;54.20;;;;;;5049365;28;20255;-45
2022/12/14 04:07:37;;;;;;;2.50;2.10;;;23.30;54.10;;;;;;5051602;28;20200;-49
2022/12/14 04:18:55;;;;;;;2.30;2.10;;;23.20;54.00;;;;;;5041745;28;20208;-44
2022/12/14 04:21:26;;;;;;;2.53;2.33;;;23.20;53.90;;;;;;5050884;28;20458;-43
2022/12/14 04:26:51;;;;;;;2.25;2.05;;;23.20;53.90;;;;;;5050862;28;21085;-44
2022/12/14 04:32:10;;;;;;;2.50;2.30;;;23.30;53.90;;;;;;5046690;28;20207;-43
2022/12/14 04:34:41;;;;;;;2.30;2.10;;;23.30;53.80;;;;;;5051362;28;20212;-50
2022/12/14 04:37:13;;;;;;;1.73;1.63;;;23.20;53.90;;;;;;5050877;28;20199;-49
2022/12/14 04:39:47;;;;;;;1.73;1.63;;;23.00;53.90;;;;;;5045984;28;20192;-43
2022/12/14 04:42:16;;;;;;;1.83;1.73;;;23.00;54.10;;;;;;5052604;28;20436;-43
2022/12/14 04:44:48;;;;;;;1.70;1.60;;;22.90;54.80;;;;;;5050258;28;20199;-60
2022/12/14 04:47:17;;;;;;;2.53;2.33;;;22.70;54.20;;;;;;5049066;28;20839;-48
2022/12/14 04:49:50;;;;;;;2.17;2.00;;;22.60;54.40;;;;;;5051343;28;20676;-51
2022/12/14 04:52:22;;;;;;;2.33;2.13;;;22.50;54.50;;;;;;5051138;28;20674;-43
2022/12/14 04:54:53;;;;;;;2.15;2.05;;;22.40;54.70;;;;;;5044487;28;20195;-43
2022/12/14 04:57:25;;;;;;;2.47;1.63;;;22.30;54.70;;;;;;5051155;28;20210;-55
2022/12/14 04:59:52;;;;;;;2.20;2.00;;;22.40;54.90;;;;;;5052701;28;20548;-46
2022/12/14 05:02:30;;;;;;;1.70;1.60;;;22.50;54.90;;;;;;5044721;28;20205;-44
2022/12/14 05:05:06;;;;;;;1.90;1.80;;;22.60;54.50;;;;;;5042949;28;20652;-44
2022/12/14 05:07:46;;;;;;;2.20;2.00;;;23.10;54.00;;;;;;5049078;28;20195;-45
2022/12/14 05:10:17;;;;;;;2.03;1.75;;;23.30;53.50;;;;;;5047979;28;20228;-43
2022/12/14 05:12:52;;;;;;;1.50;1.40;;;23.40;53.40;;;;;;5050965;28;20216;-43
2022/12/14 05:15:23;;;;;;;1.98;1.88;;;23.60;53.00;;;;;;5037901;28;20682;-44
2022/12/14 05:17:51;;;;;;;2.30;2.10;;;23.80;52.70;;;;;;5046489;28;20207;-48
2022/12/14 05:20:22;;;;;;;2.20;2.00;;;23.80;52.70;;;;;;5051851;28;20239;-51
2022/12/14 05:22:49;;;;;;;2.30;1.90;;;23.70;52.70;;;;;;5050374;28;20932;-46
2022/12/14 05:25:16;;;;;;;2.33;2.13;;;23.80;52.70;;;;;;5045322;28;20246;-43
2022/12/14 05:27:43;;;;;;;2.40;2.20;;;23.70;52.70;;;;;;5057883;28;20451;-44
2022/12/14 05:30:11;;;;;;;1.97;1.87;;;23.80;52.50;;;;;;5050574;28;20447;-45
2022/12/14 05:32:38;;;;;;;1.87;1.77;;;23.70;52.60;;;;;;5046878;28;20832;-47
2022/12/14 05:35:07;;;;;;;2.27;2.07;;;23.70;52.60;;;;;;5051340;28;20442;-46
2022/12/14 05:37:35;;;;;;;2.13;2.03;;;23.60;52.50;;;;;;5049051;28;20461;-46
2022/12/14 05:40:02;;;;;;;1.70;1.60;;;23.60;52.60;;;;;;5047912;28;20463;-52
2022/12/14 05:42:28;;;;;;;2.30;2.10;;;23.60;52.70;;;;;;5050608;28;20467;-51
2022/12/14 05:44:55;;;;;;;1.60;1.50;;;23.50;52.70;;;;;;5058252;28;20450;-44
2022/12/14 05:47:22;;;;;;;1.90;1.80;;;23.50;52.80;;;;;;5044721;28;20470;-48
2022/12/14 05:49:49;;;;;;;2.20;2.00;;;23.40;52.90;;;;;;5042725;28;20912;-48
2022/12/14 05:52:15;;;;;;;2.20;2.00;;;23.40;53.00;;;;;;5048812;28;20204;-45
2022/12/14 05:54:43;;;;;;;2.15;1.75;;;23.30;52.90;;;;;;5047296;28;20235;-43
2022/12/14 05:57:10;;;;;;;2.30;1.87;;;23.30;53.00;;;;;;5051521;28;20193;-45
2022/12/14 05:59:37;;;;;;;2.80;2.08;;;23.20;53.10;;;;;;5051862;28;20444;-46
2022/12/14 06:02:04;;;;;;;1.83;1.73;;;23.20;53.10;;;;;;5046630;28;20228;-45
2022/12/14 06:04:31;;;;;;;2.08;1.90;;;23.10;53.10;;;;;;5051459;28;20470;-47
2022/12/14 06:06:58;;;;;;;2.20;1.97;;;23.10;53.20;;;;;;5047886;28;20214;-45
2022/12/14 06:09:24;;;;;;;2.13;2.03;;;23.10;53.10;;;;;;5044868;28;20478;-47
2022/12/14 06:11:53;;;;;;;1.60;1.50;;;23.10;53.20;;;;;;5049630;28;20460;-47
2022/12/14 06:14:20;;;;;;;1.83;1.53;;;23.00;53.10;;;;;;5043902;28;20487;-44
2022/12/14 06:16:47;;;;;;;2.00;1.80;;;23.00;53.20;;;;;;5043144;28;20504;-52
2022/12/14 06:19:15;;;;;;;1.70;1.60;;;23.00;53.20;;;;;;5043981;28;20694;-45
2022/12/14 06:21:43;;;;;;;1.83;1.63;;;23.10;53.20;;;;;;5049661;28;20459;-47
2022/12/14 06:24:12;;;;;;;2.07;1.87;;;23.10;53.10;;;;;;5043703;28;20457;-44
2022/12/14 06:26:40;;;;;;;2.55;2.08;;;23.10;53.10;;;;;;5049243;28;20834;-43
2022/12/14 06:29:14;;;;;;;2.47;1.70;;;23.20;53.10;;;;;;5044690;28;20224;-43
2022/12/14 06:31:40;;;;;;;2.40;2.20;;;23.30;52.80;;;;;;5044918;28;20459;-45
2022/12/14 06:34:09;;;;;;;1.90;1.80;;;23.30;52.80;;;;;;5055320;28;20230;-52
2022/12/14 06:36:38;;;;;;;1.80;1.70;;;23.30;52.70;;;;;;5050456;28;20463;-51
2022/12/14 06:39:07;;;;;;;1.60;1.50;;;23.40;52.50;;;;;;5042147;28;20501;-47
2022/12/14 06:41:34;;;;;;;1.63;1.52;;;23.50;52.60;;;;;;5044937;28;20469;-49
2022/12/14 06:44:05;;;;;;;1.80;1.70;;;23.40;52.50;;;;;;5049276;28;20214;-44
2022/12/14 06:46:34;;;;;;;1.70;1.60;;;23.50;52.50;;;;;;5047312;28;20455;-51
2022/12/14 06:49:00;;;;;;;2.00;1.80;;;23.50;52.30;;;;;;5051890;28;20533;-43
2022/12/14 06:51:27;;;;;;;1.63;1.50;;;23.50;52.40;;;;;;5061949;28;20450;-44
2022/12/14 06:53:55;;;;;;;2.35;2.15;;;23.50;52.40;;;;;;5043017;28;20213;-47
2022/12/14 06:56:24;;;;;;;2.00;1.80;;;23.50;52.50;;;;;;5049288;28;20288;-47
2022/12/14 06:58:51;;;;;;;1.92;1.60;;;23.40;52.40;;;;;;5049400;28;20203;-44
2022/12/14 07:01:19;;;;;;;2.20;2.00;;;23.50;52.40;;;;;;5043466;28;20198;-52
2022/12/14 07:03:49;;;;;;;1.90;1.80;;;23.30;52.50;;;;;;5052561;28;20466;-50
2022/12/14 07:06:16;;;;;;;1.85;1.42;;;23.30;52.50;;;;;;5042987;28;20199;-51
2022/12/14 07:08:43;;;;;;;1.80;1.70;;;23.30;52.60;;;;;;5043489;28;20193;-45
2022/12/14 07:11:12;;;;;;;2.05;1.85;;;23.30;52.50;;;;;;5052711;28;20823;-45
2022/12/14 07:13:39;;;;;;;1.70;1.57;;;23.30;52.70;;;;;;5054079;28;20703;-47
2022/12/14 07:16:08;;;;;;;1.60;1.50;;;23.20;52.60;;;;;;5048949;28;20462;-47
2022/12/14 07:18:35;;;;;;;2.07;1.73;;;23.20;52.70;;;;;;5052633;28;20304;-48
2022/12/14 07:21:04;;;;;;;2.10;1.90;;;23.10;52.60;;;;;;5051162;28;20482;-46
2022/12/14 07:23:33;;;;;;;1.75;1.65;;;23.10;52.60;;;;;;5046063;28;20269;-47
2022/12/14 07:26:04;;;;;;;1.75;1.50;;;23.20;52.70;;;;;;5049178;28;20203;-48
2022/12/14 07:28:32;;;;;;;1.55;1.45;;;23.10;53.20;;;;;;5054223;28;20674;-47
2022/12/14 07:30:59;;;;;;;2.37;1.70;;;23.10;52.70;;;;;;5050040;28;20649;-50
2022/12/14 07:33:27;;;;;;;2.40;2.20;;;23.10;52.60;;;;;;5059145;28;20556;-47
2022/12/14 07:36:03;;;;;;;1.90;1.70;;;23.10;52.70;;;;;;5045355;28;20556;-46
2022/12/14 07:38:30;;;;;;;1.80;1.60;;;23.10;52.70;;;;;;5052278;28;20267;-46
2022/12/14 07:41:02;;;;;;;1.85;1.73;;;23.10;52.60;;;;;;5049105;28;20462;-52
2022/12/14 07:43:29;;;;;;;1.90;1.42;;;23.10;52.60;;;;;;5054064;28;20611;-54
2022/12/14 07:46:00;;;;;;;2.17;1.98;;;23.10;52.50;;;;;;5049252;28;20207;-46
2022/12/14 07:48:27;;;;;;;1.77;1.67;;;23.20;52.50;;;;;;5048084;28;20199;-46
2022/12/14 07:50:53;;;;;;;2.20;2.00;;;23.30;52.50;;;;;;5045846;28;20865;-48
2022/12/14 07:53:21;;;;;;;1.67;1.58;;;23.20;52.40;;;;;;5044222;28;20245;-51
2022/12/14 07:55:48;;;;;;;2.00;1.80;;;23.30;52.50;;;;;;5053646;28;20204;-47
2022/12/14 07:58:15;;;;;;;2.42;2.15;;;23.30;52.40;;;;;;5053830;28;20208;-46
2022/12/14 08:00:41;;;;;;;1.80;1.52;;;23.30;52.30;;;;;;5052801;28;20204;-48
2022/12/14 08:03:08;;;;;;;2.13;1.73;;;23.30;52.40;;;;;;5052210;28;20238;-44
2022/12/14 08:05:38;;;;;;;1.70;1.60;;;23.20;52.50;;;;;;5050987;28;20467;-44
2022/12/14 08:08:05;;;;;;;1.90;1.80;;;23.10;52.60;;;;;;5047820;28;20203;-45
2022/12/14 08:10:33;;;;;;;1.50;1.40;;;23.00;52.70;;;;;;5050797;28;20229;-46
2022/12/14 08:13:00;;;;;;;5.03;2.47;;;22.90;52.70;;;;;;5049970;28;20200;-41
2022/12/14 08:15:27;;;;;;;4.25;1.80;;;22.80;53.00;;;;;;5045958;28;20312;-42
2022/12/14 08:17:53;;;;;;;2.45;1.83;;;22.80;53.40;;;;;;5055108;28;20189;-45
2022/12/14 08:20:20;;;;;;;2.55;1.70;;;22.70;53.40;;;;;;5052304;28;20215;-42
2022/12/14 08:22:50;;;;;;;2.10;1.90;;;22.60;53.60;;;;;;5049534;28;20606;-41
2022/12/14 08:25:17;;;;;;;2.50;2.30;;;22.70;53.70;;;;;;5047994;28;20196;-41
2022/12/14 08:27:45;;;;;;;1.85;1.50;;;22.80;53.20;;;;;;5054968;28;20567;-43
2022/12/14 08:30:12;;;;;;;2.55;1.70;;;23.00;53.20;;;;;;5047589;28;20291;-45
2022/12/14 08:32:39;;;;;;;2.10;1.90;;;23.10;52.80;;;;;;5050531;28;20207;-43
2022/12/14 08:35:06;;;;;;;2.67;2.47;;;23.30;52.50;;;;;;5052011;28;20215;-43
2022/12/14 08:37:33;;;;;;;2.22;2.13;;;23.30;52.30;;;;;;5051974;28;20195;-42
2022/12/14 08:40:00;;;;;;;2.28;2.08;;;23.40;52.30;;;;;;5050046;28;20746;-42
2022/12/14 08:42:26;;;;;;;2.50;2.05;;;23.30;52.20;;;;;;5052448;28;20223;-42
2022/12/14 08:44:54;;;;;;;1.95;1.85;;;23.30;52.30;;;;;;5044321;28;20222;-43
2022/12/14 08:47:21;;;;;;;2.08;1.88;;;23.40;52.50;;;;;;5048939;28;20203;-42
2022/12/14 08:49:48;;;;;;;1.70;1.60;;;23.50;52.50;;;;;;5043800;28;20216;-42
2022/12/14 08:52:15;;;;;;;1.77;1.67;;;23.60;52.50;;;;;;5042577;28;20683;-43
2022/12/14 08:54:41;;;;;;;1.60;1.50;;;23.60;52.60;;;;;;5041163;28;20292;-42
2022/12/14 08:57:08;;;;;;;2.10;1.90;;;23.60;52.60;;;;;;5050517;28;20655;-49
2022/12/14 08:59:35;;;;;;;2.15;1.95;;;23.80;52.60;;;;;;5056957;28;20195;-42
2022/12/14 09:02:03;;;;;;;2.53;2.33;;;23.80;52.50;;;;;;5047288;28;20205;-41
2022/12/14 09:04:30;;;;;;;1.40;1.30;;;23.90;52.60;;;;;;5048233;28;20200;-42
2022/12/14 09:06:56;;;;;;;1.77;1.67;;;23.70;52.70;;;;;;5050948;28;20202;-45
2022/12/14 09:09:23;;;;;;;1.60;1.50;;;23.60;52.90;;;;;;5051615;28;20200;-43
2022/12/14 09:11:50;;;;;;;2.38;1.48;;;23.60;53.00;;;;;;5046908;28;21000;-46
2022/12/14 09:14:16;;;;;;;1.98;1.77;;;23.60;53.10;;;;;;5049717;28;20305;-46
2022/12/14 09:16:43;;;;;;;2.10;1.40;;;23.60;53.20;;;;;;5051195;28;20215;-43
2022/12/14 09:19:11;;;;;;;6.28;1.85;;;23.50;53.30;;;;;;5048967;28;20226;-42
2022/12/14 09:21:38;;;;;;;2.60;1.70;;;23.50;53.40;;;;;;5045050;28;20938;-44
2022/12/14 09:24:05;;;;;;;1.40;1.30;;;23.50;53.50;;;;;;5044398;28;20202;-45
2022/12/14 09:26:32;;;;;;;1.85;1.40;;;23.40;53.50;;;;;;5039330;28;20197;-43
2022/12/14 09:28:59;;;;;;;1.65;1.55;;;23.50;53.40;;;;;;5051022;28;20230;-43
2022/12/14 09:31:27;;;;;;;1.88;1.77;;;23.60;53.40;;;;;;5048195;28;20651;-43
2022/12/14 09:33:55;;;;;;;3.78;1.58;;;23.50;53.30;;;;;;5044721;28;20354;-43
2022/12/14 09:36:25;;;;;;;2.07;1.50;;;23.50;53.30;;;;;;5054468;28;20196;-43
2022/12/14 09:38:53;;;;;;;7.88;1.92;;;23.50;53.30;;;;;;5044489;28;20481;-42
2022/12/14 09:41:35;;;;;;;27.27;2.47;;;23.50;53.40;;;;;;5047872;28;20216;-43
2022/12/14 09:44:09;;;;;;;8.82;1.83;;;23.60;53.40;;;;;;5049137;28;20291;-45
2022/12/14 09:46:49;;;;;;;3.83;1.70;;;23.70;53.50;;;;;;5041459;28;20286;-45
2022/12/14 09:49:27;;;;;;;1.90;1.40;;;23.80;53.50;;;;;;5053167;28;20199;-41
2022/12/14 09:51:59;;;;;;;1.80;1.70;;;23.80;53.60;;;;;;5047471;28;20203;-44
2022/12/14 09:54:28;;;;;;;1.50;1.40;;;23.80;53.70;;;;;;5044082;28;20231;-44
2022/12/14 09:56:58;;;;;;;2.40;1.45;;;23.80;53.80;;;;;;5049273;28;20505;-43
2022/12/14 09:59:28;;;;;;;1.88;1.67;;;23.80;53.90;;;;;;5051728;28;20561;-45
2022/12/14 10:02:01;;;;;;;1.88;1.65;;;23.80;53.90;;;;;;5037091;28;20195;-46
2022/12/14 10:04:43;;;;;;;1.60;1.45;;;23.80;53.90;;;;;;5051871;28;20201;-45
2022/12/14 10:07:19;;;;;;;3.75;1.80;;;23.80;54.00;;;;;;5050576;28;20211;-44
2022/12/14 10:09:53;;;;;;;1.88;1.67;;;23.80;54.00;;;;;;5045809;28;20191;-45
2022/12/14 10:12:39;;;;;;;2.30;1.77;;;23.80;54.00;;;;;;5048981;28;20206;-44
2022/12/14 10:15:18;;;;;;;1.60;1.50;;;23.80;54.20;;;;;;5043771;28;20572;-47
2022/12/14 10:18:02;;;;;;;1.80;1.70;;;23.80;54.20;;;;;;5050004;28;20196;-48
2022/12/14 10:20:35;;;;;;;1.60;1.50;;;23.90;54.20;;;;;;5047377;28;20654;-46
2022/12/14 10:23:04;;;;;;;2.47;2.28;;;24.00;54.20;;;;;;5043939;28;20966;-48
2022/12/14 10:25:34;;;;;;;1.55;1.45;;;24.00;54.30;;;;;;5044965;28;20677;-47
2022/12/14 10:28:04;;;;;;;4.05;1.40;;;24.00;54.30;;;;;;5054821;28;20204;-49
2022/12/14 10:30:31;;;;;;;1.53;1.23;;;24.00;54.40;;;;;;5053476;28;20205;-41
2022/12/14 10:33:05;;;;;;;2.70;1.75;;;23.80;55.00;;;;;;5044944;28;20458;-42
2022/12/14 10:35:46;;;;;;;2.03;1.67;;;23.70;55.00;;;;;;5046411;28;20219;-44
2022/12/14 10:38:22;;;;;;;1.60;1.50;;;23.60;54.70;;;;;;5044291;28;20200;-42
2022/12/14 10:40:52;;;;;;;1.50;1.40;;;23.50;54.80;;;;;;5044658;28;20691;-44
2022/12/14 10:43:30;;;;;;;1.70;1.40;;;23.50;54.80;;;;;;5049118;28;20214;-42
2022/12/14 10:46:04;;;;;;;1.60;1.50;;;23.40;54.90;;;;;;5050784;28;20678;-42
2022/12/14 10:48:47;;;;;;;2.30;1.48;;;23.40;54.80;;;;;;5047727;28;20200;-42
2022/12/14 10:51:19;;;;;;;3.97;1.60;;;23.40;54.90;;;;;;5051410;28;20204;-42
2022/12/14 10:53:51;;;;;;;1.73;1.63;;;23.30;54.80;;;;;;5047999;28;20196;-45
2022/12/14 10:56:23;;;;;;;1.90;1.58;;;23.30;54.80;;;;;;5055100;28;20552;-42
2022/12/14 10:59:19;;;;;;;1.42;1.30;;;23.40;54.90;;;;;;5054035;28;20203;-42
2022/12/14 11:01:49;;;;;;;1.70;1.58;;;23.40;54.70;;;;;;5052453;28;20203;-44
2022/12/14 11:04:28;;;;;;;1.40;1.30;;;23.50;54.60;;;;;;5044906;28;20583;-42
2022/12/14 11:06:56;;;;;;;1.35;1.25;;;23.60;54.50;;;;;;5058093;28;20281;-42
2022/12/14 11:09:24;;;;;;;4.80;1.67;;;23.60;54.40;;;;;;5047090;28;20204;-50
2022/12/14 11:11:57;;;;;;;1.90;1.50;;;23.60;54.40;;;;;;5052018;28;20220;-46
2022/12/14 11:14:25;;;;;;;1.70;1.40;;;23.80;54.20;;;;;;5051702;28;20229;-47
2022/12/14 11:16:52;;;;;;;2.60;1.50;;;24.00;54.70;;;;;;5051165;28;20203;-47
2022/12/14 11:19:21;;;;;;;1.50;1.35;;;24.10;54.00;;;;;;5048763;28;20220;-49
2022/12/14 11:21:49;;;;;;;1.40;1.30;;;24.20;54.00;;;;;;5052322;28;20208;-46
2022/12/14 11:24:25;;;;;;;1.50;1.40;;;24.10;53.90;;;;;;5048829;28;20200;-47
2022/12/14 11:26:54;;;;;;;1.70;1.60;;;24.20;54.00;;;;;;5051678;28;20198;-49
2022/12/14 11:29:32;;;;;;;1.50;1.35;;;24.20;53.90;;;;;;5052774;28;20659;-49
2022/12/14 11:32:00;;;;;;;1.83;1.48;;;24.20;54.00;;;;;;5047434;28;20207;-49
2022/12/14 11:34:33;;;;;;;1.75;1.52;;;24.20;54.10;;;;;;5041944;28;20220;-59
2022/12/14 11:37:12;;;;;;;1.43;1.33;;;24.20;54.00;;;;;;5052754;28;20208;-48
2022/12/14 11:39:42;;;;;;;2.30;1.77;;;24.10;54.20;;;;;;5045166;28;20462;-48
2022/12/14 11:42:17;;;;;;;1.90;1.70;;;23.90;53.90;;;;;;5047097;28;20196;-48
2022/12/14 11:44:45;;;;;;;1.80;1.67;;;23.80;54.20;;;;;;5045551;28;20475;-43
2022/12/14 11:47:14;;;;;;;1.90;1.50;;;23.80;54.50;;;;;;5047053;28;20515;-51
2022/12/14 11:49:45;;;;;;;3.67;1.58;;;23.70;54.60;;;;;;5055701;28;20504;-52
2022/12/14 11:52:14;;;;;;;1.73;1.10;;;23.60;54.60;;;;;;5047116;28;20199;-47
2022/12/14 11:54:43;;;;;;;1.60;1.50;;;23.60;54.70;;;;;;5048317;28;20473;-47
2022/12/14 11:57:22;;;;;;;1.57;1.47;;;23.60;54.80;;;;;;5050855;28;20470;-47
2022/12/14 11:59:52;;;;;;;1.50;1.38;;;23.60;54.90;;;;;;5052972;28;20456;-50
2022/12/14 12:02:25;;;;;;;2.30;1.10;;;23.70;54.90;;;;;;5050861;28;20216;-50
2022/12/14 12:04:56;;;;;;;1.97;1.50;;;23.80;54.80;;;;;;5051165;28;20485;-47
2022/12/14 12:07:32;;;;;;;1.30;1.20;;;23.90;54.70;;;;;;5047953;28;20458;-46
2022/12/14 12:10:14;;;;;;;1.43;1.27;;;24.00;54.60;;;;;;5044996;28;20503;-46
2022/12/14 12:12:48;;;;;;;1.50;1.40;;;24.10;54.40;;;;;;5048531;28;20463;-45
2022/12/14 12:15:18;;;;;;;3.27;1.57;;;24.10;54.40;;;;;;5057760;28;20484;-46
2022/12/14 12:17:48;;;;;;;1.80;1.37;;;24.30;54.40;;;;;;5053136;28;20945;-50
2022/12/14 12:20:23;;;;;;;2.70;1.20;;;24.40;54.20;;;;;;5055976;28;20490;-46
2022/12/14 12:22:56;;;;;;;1.53;1.43;;;24.50;54.10;;;;;;5047431;28;20466;-46
2022/12/14 12:25:25;;;;;;;1.40;1.30;;;24.60;54.00;;;;;;5055325;28;20458;-44
2022/12/14 12:27:59;;;;;;;1.30;1.20;;;24.60;53.90;;;;;;5052950;28;20794;-45
2022/12/14 12:30:29;;;;;;;1.40;1.20;;;24.60;53.90;;;;;;5055581;28;20493;-50
2022/12/14 12:33:02;;;;;;;1.40;1.30;;;24.60;53.90;;;;;;5052117;28;20463;-52
2022/12/14 12:35:36;;;;;;;2.37;1.57;;;24.60;54.00;;;;;;5051165;28;20488;-54
2022/12/14 12:38:12;;;;;;;1.50;1.33;;;24.50;54.10;;;;;;5040010;28;20458;-46
2022/12/14 12:40:51;;;;;;;1.60;1.50;;;24.50;54.10;;;;;;5055235;28;20470;-52
2022/12/14 12:43:25;;;;;;;1.57;1.43;;;24.50;54.20;;;;;;5049578;28;20491;-49
2022/12/14 12:45:56;;;;;;;1.30;1.20;;;24.30;53.70;;;;;;5045540;28;20474;-49
2022/12/14 12:48:27;;;;;;;1.60;1.50;;;24.30;54.20;;;;;;5042858;28;20478;-48
2022/12/14 12:50:59;;;;;;;1.37;1.27;;;24.30;54.20;;;;;;5048182;28;20455;-48
2022/12/14 12:53:30;;;;;;;1.40;1.30;;;24.30;54.90;;;;;;5046629;28;20462;-46
2022/12/14 12:56:06;;;;;;;1.80;1.60;;;24.20;54.40;;;;;;5052033;28;20983;-49
2022/12/14 12:58:35;;;;;;;2.07;1.70;;;24.20;54.40;;;;;;5051673;28;20926;-47
2022/12/14 13:01:06;;;;;;;1.37;1.20;;;24.20;54.50;;;;;;5049856;28;21210;-48
2022/12/14 13:03:37;;;;;;;2.60;1.90;;;24.20;54.50;;;;;;5048603;28;20463;-51
2022/12/14 13:06:10;;;;;;;2.00;1.70;;;24.10;54.60;;;;;;5051414;28;20473;-55
2022/12/14 13:08:40;;;;;;;1.43;1.30;;;24.00;54.60;;;;;;5045361;28;20456;-47
2022/12/14 13:11:14;;;;;;;1.50;1.40;;;23.90;54.70;;;;;;5051849;28;20466;-50
2022/12/14 13:13:45;;;;;;;1.60;1.50;;;23.80;54.80;;;;;;5049710;28;20463;-47
2022/12/14 13:16:15;;;;;;;1.73;1.60;;;23.80;55.50;;;;;;5048349;28;20490;-47
2022/12/14 13:18:47;;;;;;;2.70;1.60;;;23.90;55.00;;;;;;5051737;28;20458;-46